sensor_id;sensor_type;location;lat;lon;timestamp;pressure;altitude;pressure_sealevel;temperature;humidity
62055;BME280;48653;51.742;-1.256;2023-03-15T00:03:45;100773.14;;;4.41;46.03
62055;BME280;48653;51.742;-1.256;2023-03-15T00:06:09;100778.46;;;4.72;45.97
62055;BME280;48653;51.742;-1.256;2023-03-15T00:08:34;100786.65;;;4.78;45.94
62055;BME280;48653;51.742;-1.256;2023-03-15T00:10:59;100791.84;;;4.76;46.02
62055;BME280;48653;51.742;-1.256;2023-03-15T00:13:24;100791.16;;;4.54;46.65
62055;BME280;48653;51.742;-1.256;2023-03-15T00:15:50;100798.30;;;4.14;47.52
62055;BME280;48653;51.742;-1.256;2023-03-15T00:18:16;100801.71;;;3.90;48.08
62055;BME280;48653;51.742;-1.256;2023-03-15T00:20:40;100807.86;;;4.08;47.78
62055;BME280;48653;51.742;-1.256;2023-03-15T00:23:05;100804.85;;;3.89;48.52
62055;BME280;48653;51.742;-1.256;2023-03-15T00:25:30;100812.66;;;3.59;48.83
62055;BME280;48653;51.742;-1.256;2023-03-15T00:27:55;100817.58;;;3.57;49.11
62055;BME280;48653;51.742;-1.256;2023-03-15T00:30:21;100816.93;;;3.98;47.71
62055;BME280;48653;51.742;-1.256;2023-03-15T00:32:45;100820.64;;;3.32;50.08
62055;BME280;48653;51.742;-1.256;2023-03-15T00:35:11;100819.45;;;3.80;49.16
62055;BME280;48653;51.742;-1.256;2023-03-15T00:37:36;100816.27;;;3.36;50.21
62055;BME280;48653;51.742;-1.256;2023-03-15T00:40:02;100818.15;;;3.15;51.22
62055;BME280;48653;51.742;-1.256;2023-03-15T00:42:27;100824.10;;;3.66;49.79
62055;BME280;48653;51.742;-1.256;2023-03-15T00:44:52;100831.33;;;3.30;50.80
62055;BME280;48653;51.742;-1.256;2023-03-15T00:47:17;100832.17;;;3.38;50.94
62055;BME280;48653;51.742;-1.256;2023-03-15T00:49:42;100828.03;;;3.12;51.04
62055;BME280;48653;51.742;-1.256;2023-03-15T00:52:08;100823.92;;;3.63;50.23
62055;BME280;48653;51.742;-1.256;2023-03-15T00:54:33;100824.85;;;3.43;49.82
62055;BME280;48653;51.742;-1.256;2023-03-15T00:56:59;100828.22;;;3.43;50.84
62055;BME280;48653;51.742;-1.256;2023-03-15T00:59:24;100827.54;;;3.66;50.11
62055;BME280;48653;51.742;-1.256;2023-03-15T01:01:50;100828.34;;;3.41;50.29
62055;BME280;48653;51.742;-1.256;2023-03-15T01:04:15;100827.74;;;3.33;50.66
62055;BME280;48653;51.742;-1.256;2023-03-15T01:06:40;100829.62;;;3.26;50.79
62055;BME280;48653;51.742;-1.256;2023-03-15T01:09:06;100836.62;;;3.72;50.21
62055;BME280;48653;51.742;-1.256;2023-03-15T01:11:31;100842.13;;;3.60;49.34
62055;BME280;48653;51.742;-1.256;2023-03-15T01:13:57;100846.31;;;3.53;49.35
62055;BME280;48653;51.742;-1.256;2023-03-15T01:16:22;100842.65;;;3.61;49.35
62055;BME280;48653;51.742;-1.256;2023-03-15T01:18:47;100845.88;;;3.44;49.33
62055;BME280;48653;51.742;-1.256;2023-03-15T01:21:13;100854.34;;;3.28;50.34
62055;BME280;48653;51.742;-1.256;2023-03-15T01:23:37;100858.53;;;3.63;49.46
62055;BME280;48653;51.742;-1.256;2023-03-15T01:26:04;100858.21;;;3.68;49.73
62055;BME280;48653;51.742;-1.256;2023-03-15T01:28:28;100863.38;;;3.43;51.10
62055;BME280;48653;51.742;-1.256;2023-03-15T01:30:53;100864.64;;;3.35;50.28
62055;BME280;48653;51.742;-1.256;2023-03-15T01:33:18;100868.24;;;2.97;51.29
62055;BME280;48653;51.742;-1.256;2023-03-15T01:35:43;100871.14;;;3.27;50.85
62055;BME280;48653;51.742;-1.256;2023-03-15T01:38:09;100877.68;;;2.93;52.43
62055;BME280;48653;51.742;-1.256;2023-03-15T01:40:34;100874.92;;;3.43;51.03
62055;BME280;48653;51.742;-1.256;2023-03-15T01:43:12;100880.85;;;3.01;51.33
62055;BME280;48653;51.742;-1.256;2023-03-15T01:47:50;100882.69;;;3.51;49.72
62055;BME280;48653;51.742;-1.256;2023-03-15T01:50:15;100883.45;;;3.43;49.41
62055;BME280;48653;51.742;-1.256;2023-03-15T01:52:41;100888.81;;;2.97;51.47
62055;BME280;48653;51.742;-1.256;2023-03-15T01:55:07;100886.23;;;3.42;50.85
62055;BME280;48653;51.742;-1.256;2023-03-15T01:57:34;100890.17;;;2.73;52.17
62055;BME280;48653;51.742;-1.256;2023-03-15T01:59:59;100892.67;;;3.31;50.66
62055;BME280;48653;51.742;-1.256;2023-03-15T02:02:22;100889.47;;;3.35;50.30
62055;BME280;48653;51.742;-1.256;2023-03-15T02:04:50;100896.41;;;3.13;51.43
62055;BME280;48653;51.742;-1.256;2023-03-15T02:07:13;100894.61;;;2.73;51.58
62055;BME280;48653;51.742;-1.256;2023-03-15T02:09:43;100893.94;;;3.01;51.31
62055;BME280;48653;51.742;-1.256;2023-03-15T02:12:03;100900.75;;;3.11;51.07
62055;BME280;48653;51.742;-1.256;2023-03-15T02:14:28;100901.05;;;3.24;50.72
62055;BME280;48653;51.742;-1.256;2023-03-15T02:16:54;100901.01;;;2.73;50.88
62055;BME280;48653;51.742;-1.256;2023-03-15T02:19:30;100897.85;;;2.81;51.73
62055;BME280;48653;51.742;-1.256;2023-03-15T02:21:51;100898.97;;;3.07;51.29
62055;BME280;48653;51.742;-1.256;2023-03-15T02:24:21;100896.55;;;3.01;51.59
62055;BME280;48653;51.742;-1.256;2023-03-15T02:26:41;100894.08;;;2.90;51.18
62055;BME280;48653;51.742;-1.256;2023-03-15T02:29:02;100892.57;;;3.47;49.56
62055;BME280;48653;51.742;-1.256;2023-03-15T02:31:28;100899.92;;;3.24;50.59
62055;BME280;48653;51.742;-1.256;2023-03-15T02:33:53;100902.65;;;3.19;49.78
62055;BME280;48653;51.742;-1.256;2023-03-15T02:36:20;100904.48;;;2.99;50.17
62055;BME280;48653;51.742;-1.256;2023-03-15T02:38:43;100901.08;;;3.35;48.96
62055;BME280;48653;51.742;-1.256;2023-03-15T02:41:09;100895.76;;;3.04;49.45
62055;BME280;48653;51.742;-1.256;2023-03-15T02:43:34;100895.34;;;3.23;50.16
62055;BME280;48653;51.742;-1.256;2023-03-15T02:46:00;100903.00;;;2.99;49.97
62055;BME280;48653;51.742;-1.256;2023-03-15T02:48:26;100905.48;;;3.06;50.32
62055;BME280;48653;51.742;-1.256;2023-03-15T02:50:51;100911.57;;;3.17;49.26
62055;BME280;48653;51.742;-1.256;2023-03-15T02:53:16;100910.08;;;3.00;49.28
62055;BME280;48653;51.742;-1.256;2023-03-15T02:55:41;100907.89;;;2.96;49.13
62055;BME280;48653;51.742;-1.256;2023-03-15T02:58:06;100903.75;;;2.75;49.25
62055;BME280;48653;51.742;-1.256;2023-03-15T03:00:31;100899.27;;;1.95;51.06
62055;BME280;48653;51.742;-1.256;2023-03-15T03:02:57;100901.86;;;2.18;51.78
62055;BME280;48653;51.742;-1.256;2023-03-15T03:05:22;100905.47;;;2.73;50.46
62055;BME280;48653;51.742;-1.256;2023-03-15T03:07:48;100905.86;;;2.61;49.71
62055;BME280;48653;51.742;-1.256;2023-03-15T03:10:15;100906.96;;;2.01;51.61
62055;BME280;48653;51.742;-1.256;2023-03-15T03:12:38;100908.11;;;2.55;49.60
62055;BME280;48653;51.742;-1.256;2023-03-15T03:15:04;100908.97;;;2.79;49.12
62055;BME280;48653;51.742;-1.256;2023-03-15T03:17:30;100909.06;;;2.42;50.22
62055;BME280;48653;51.742;-1.256;2023-03-15T03:19:56;100913.27;;;2.32;49.99
62055;BME280;48653;51.742;-1.256;2023-03-15T03:22:20;100915.48;;;3.24;48.49
62055;BME280;48653;51.742;-1.256;2023-03-15T03:24:45;100921.58;;;2.88;47.81
62055;BME280;48653;51.742;-1.256;2023-03-15T03:27:11;100925.31;;;2.52;49.09
62055;BME280;48653;51.742;-1.256;2023-03-15T03:29:36;100930.46;;;2.65;47.97
62055;BME280;48653;51.742;-1.256;2023-03-15T03:32:03;100932.82;;;2.54;48.05
62055;BME280;48653;51.742;-1.256;2023-03-15T03:34:27;100940.52;;;2.09;49.84
62055;BME280;48653;51.742;-1.256;2023-03-15T03:36:53;100948.95;;;2.11;49.41
62055;BME280;48653;51.742;-1.256;2023-03-15T03:39:18;100955.29;;;2.17;49.66
62055;BME280;48653;51.742;-1.256;2023-03-15T03:41:43;100960.91;;;2.52;49.67
62055;BME280;48653;51.742;-1.256;2023-03-15T03:44:08;100963.48;;;2.66;48.36
62055;BME280;48653;51.742;-1.256;2023-03-15T03:46:34;100964.09;;;2.39;48.89
62055;BME280;48653;51.742;-1.256;2023-03-15T03:48:59;100956.71;;;2.33;48.61
62055;BME280;48653;51.742;-1.256;2023-03-15T03:51:25;100954.22;;;2.21;49.32
62055;BME280;48653;51.742;-1.256;2023-03-15T03:53:50;100955.61;;;2.46;49.19
62055;BME280;48653;51.742;-1.256;2023-03-15T03:56:15;100956.57;;;2.41;48.64
62055;BME280;48653;51.742;-1.256;2023-03-15T03:58:41;100954.46;;;2.57;48.46
62055;BME280;48653;51.742;-1.256;2023-03-15T04:01:06;100951.53;;;2.56;47.47
62055;BME280;48653;51.742;-1.256;2023-03-15T04:03:32;100947.40;;;2.24;47.80
62055;BME280;48653;51.742;-1.256;2023-03-15T04:05:58;100944.07;;;2.56;48.61
62055;BME280;48653;51.742;-1.256;2023-03-15T04:08:23;100940.86;;;2.23;48.32
62055;BME280;48653;51.742;-1.256;2023-03-15T04:10:49;100939.21;;;2.22;48.75
62055;BME280;48653;51.742;-1.256;2023-03-15T04:13:14;100935.87;;;2.13;48.05
62055;BME280;48653;51.742;-1.256;2023-03-15T04:15:39;100939.98;;;2.16;48.86
62055;BME280;48653;51.742;-1.256;2023-03-15T04:18:05;100940.40;;;2.39;48.47
62055;BME280;48653;51.742;-1.256;2023-03-15T04:20:31;100940.61;;;1.94;49.72
62055;BME280;48653;51.742;-1.256;2023-03-15T04:22:56;100941.58;;;2.44;47.89
62055;BME280;48653;51.742;-1.256;2023-03-15T04:25:21;100939.03;;;2.08;48.98
62055;BME280;48653;51.742;-1.256;2023-03-15T04:27:46;100939.88;;;2.27;48.34
62055;BME280;48653;51.742;-1.256;2023-03-15T04:30:12;100940.55;;;2.17;47.58
62055;BME280;48653;51.742;-1.256;2023-03-15T04:32:37;100942.42;;;1.81;49.17
62055;BME280;48653;51.742;-1.256;2023-03-15T04:35:04;100941.20;;;1.81;48.70
62055;BME280;48653;51.742;-1.256;2023-03-15T04:37:29;100944.71;;;1.56;49.59
62055;BME280;48653;51.742;-1.256;2023-03-15T04:39:55;100942.83;;;1.49;50.11
62055;BME280;48653;51.742;-1.256;2023-03-15T04:42:21;100944.43;;;1.49;50.10
62055;BME280;48653;51.742;-1.256;2023-03-15T04:44:46;100947.65;;;1.94;48.74
62055;BME280;48653;51.742;-1.256;2023-03-15T04:47:11;100945.93;;;2.03;48.40
62055;BME280;48653;51.742;-1.256;2023-03-15T04:49:36;100942.44;;;1.96;48.55
62055;BME280;48653;51.742;-1.256;2023-03-15T04:52:01;100941.94;;;1.88;48.78
62055;BME280;48653;51.742;-1.256;2023-03-15T04:54:27;100937.33;;;1.94;48.57
62055;BME280;48653;51.742;-1.256;2023-03-15T04:56:52;100940.04;;;1.99;48.60
62055;BME280;48653;51.742;-1.256;2023-03-15T04:59:17;100939.58;;;2.04;48.39
62055;BME280;48653;51.742;-1.256;2023-03-15T05:01:43;100945.11;;;1.73;49.02
62055;BME280;48653;51.742;-1.256;2023-03-15T05:04:08;100950.49;;;1.47;49.43
62055;BME280;48653;51.742;-1.256;2023-03-15T05:06:34;100945.44;;;1.64;49.09
62055;BME280;48653;51.742;-1.256;2023-03-15T05:09:00;100946.42;;;1.49;49.83
62055;BME280;48653;51.742;-1.256;2023-03-15T05:11:25;100952.62;;;1.88;48.95
62055;BME280;48653;51.742;-1.256;2023-03-15T05:13:50;100950.83;;;2.26;48.53
62055;BME280;48653;51.742;-1.256;2023-03-15T05:16:16;100956.15;;;1.87;49.00
62055;BME280;48653;51.742;-1.256;2023-03-15T05:18:41;100954.42;;;1.64;49.47
62055;BME280;48653;51.742;-1.256;2023-03-15T05:21:07;100955.96;;;1.43;49.52
62055;BME280;48653;51.742;-1.256;2023-03-15T05:23:32;100958.57;;;1.64;49.03
62055;BME280;48653;51.742;-1.256;2023-03-15T05:25:57;100964.08;;;1.64;49.85
62055;BME280;48653;51.742;-1.256;2023-03-15T05:28:23;100963.57;;;2.01;48.74
62055;BME280;48653;51.742;-1.256;2023-03-15T05:30:48;100967.81;;;1.60;49.57
62055;BME280;48653;51.742;-1.256;2023-03-15T05:33:13;100969.00;;;1.82;49.27
62055;BME280;48653;51.742;-1.256;2023-03-15T05:35:38;100970.36;;;2.25;48.21
62055;BME280;48653;51.742;-1.256;2023-03-15T05:38:03;100974.70;;;1.36;49.16
62055;BME280;48653;51.742;-1.256;2023-03-15T05:40:29;100976.67;;;1.50;48.55
62055;BME280;48653;51.742;-1.256;2023-03-15T05:42:55;100977.88;;;1.45;49.27
62055;BME280;48653;51.742;-1.256;2023-03-15T05:45:20;100978.82;;;1.43;49.96
62055;BME280;48653;51.742;-1.256;2023-03-15T05:47:46;100981.55;;;1.31;50.26
62055;BME280;48653;51.742;-1.256;2023-03-15T05:50:11;100987.60;;;1.75;49.56
62055;BME280;48653;51.742;-1.256;2023-03-15T05:52:36;100992.22;;;1.95;48.86
62055;BME280;48653;51.742;-1.256;2023-03-15T05:55:01;100994.38;;;1.68;49.24
62055;BME280;48653;51.742;-1.256;2023-03-15T05:57:27;100992.26;;;1.10;49.73
62055;BME280;48653;51.742;-1.256;2023-03-15T05:59:52;100993.70;;;1.06;49.93
62055;BME280;48653;51.742;-1.256;2023-03-15T06:02:18;100993.29;;;1.15;49.86
62055;BME280;48653;51.742;-1.256;2023-03-15T06:04:43;100996.20;;;1.74;48.55
62055;BME280;48653;51.742;-1.256;2023-03-15T06:07:09;100995.11;;;1.62;48.98
62055;BME280;48653;51.742;-1.256;2023-03-15T06:09:34;100995.51;;;1.46;48.92
62055;BME280;48653;51.742;-1.256;2023-03-15T06:11:59;100991.53;;;1.48;49.75
62055;BME280;48653;51.742;-1.256;2023-03-15T06:14:25;100989.96;;;1.53;49.56
62055;BME280;48653;51.742;-1.256;2023-03-15T06:16:51;100990.45;;;1.59;48.61
62055;BME280;48653;51.742;-1.256;2023-03-15T06:19:16;100992.36;;;1.50;49.19
62055;BME280;48653;51.742;-1.256;2023-03-15T06:21:42;100994.08;;;1.30;49.65
62055;BME280;48653;51.742;-1.256;2023-03-15T06:24:08;100995.53;;;1.37;49.37
62055;BME280;48653;51.742;-1.256;2023-03-15T06:26:33;100995.91;;;1.21;49.75
62055;BME280;48653;51.742;-1.256;2023-03-15T06:28:59;100996.41;;;1.63;49.58
62055;BME280;48653;51.742;-1.256;2023-03-15T06:31:24;100993.29;;;1.83;49.45
62055;BME280;48653;51.742;-1.256;2023-03-15T06:33:49;100993.29;;;1.92;48.66
62055;BME280;48653;51.742;-1.256;2023-03-15T06:36:15;101001.43;;;1.55;49.41
62055;BME280;48653;51.742;-1.256;2023-03-15T06:38:40;100999.79;;;1.44;49.96
62055;BME280;48653;51.742;-1.256;2023-03-15T06:41:06;101004.66;;;1.92;50.28
62055;BME280;48653;51.742;-1.256;2023-03-15T06:43:31;101009.10;;;1.54;50.39
62055;BME280;48653;51.742;-1.256;2023-03-15T06:45:57;101012.56;;;1.54;50.49
62055;BME280;48653;51.742;-1.256;2023-03-15T06:48:22;101013.74;;;1.85;49.82
62055;BME280;48653;51.742;-1.256;2023-03-15T06:50:47;101020.14;;;2.03;49.67
62055;BME280;48653;51.742;-1.256;2023-03-15T06:53:13;101025.28;;;2.10;49.93
62055;BME280;48653;51.742;-1.256;2023-03-15T06:55:38;101023.92;;;2.55;49.35
62055;BME280;48653;51.742;-1.256;2023-03-15T06:58:03;101024.02;;;2.19;50.53
62055;BME280;48653;51.742;-1.256;2023-03-15T07:00:28;101025.07;;;1.83;50.68
62055;BME280;48653;51.742;-1.256;2023-03-15T07:02:53;101028.69;;;2.04;51.02
62055;BME280;48653;51.742;-1.256;2023-03-15T07:05:19;101027.16;;;2.25;50.54
62055;BME280;48653;51.742;-1.256;2023-03-15T07:07:45;101031.96;;;2.16;51.03
62055;BME280;48653;51.742;-1.256;2023-03-15T07:10:10;101034.74;;;2.43;50.40
62055;BME280;48653;51.742;-1.256;2023-03-15T07:12:35;101040.15;;;2.39;50.87
62055;BME280;48653;51.742;-1.256;2023-03-15T07:15:01;101042.49;;;2.40;50.68
62055;BME280;48653;51.742;-1.256;2023-03-15T07:17:26;101042.43;;;2.58;50.39
62055;BME280;48653;51.742;-1.256;2023-03-15T07:19:52;101044.62;;;2.22;51.28
62055;BME280;48653;51.742;-1.256;2023-03-15T07:22:17;101036.31;;;2.42;50.24
62055;BME280;48653;51.742;-1.256;2023-03-15T07:24:43;101034.31;;;2.56;50.70
62055;BME280;48653;51.742;-1.256;2023-03-15T07:27:11;101040.13;;;2.47;51.39
62055;BME280;48653;51.742;-1.256;2023-03-15T07:29:33;101036.68;;;2.71;49.99
62055;BME280;48653;51.742;-1.256;2023-03-15T07:31:59;101034.78;;;2.49;51.44
62055;BME280;48653;51.742;-1.256;2023-03-15T07:34:25;101035.73;;;3.04;50.47
62055;BME280;48653;51.742;-1.256;2023-03-15T07:36:50;101032.69;;;2.92;50.34
62055;BME280;48653;51.742;-1.256;2023-03-15T07:39:16;101023.10;;;2.76;51.39
62055;BME280;48653;51.742;-1.256;2023-03-15T07:41:41;101029.10;;;2.33;51.98
62055;BME280;48653;51.742;-1.256;2023-03-15T07:44:07;101033.00;;;2.84;51.57
62055;BME280;48653;51.742;-1.256;2023-03-15T07:46:33;101032.71;;;2.29;51.91
62055;BME280;48653;51.742;-1.256;2023-03-15T07:48:58;101037.26;;;2.66;50.92
62055;BME280;48653;51.742;-1.256;2023-03-15T07:51:24;101042.84;;;2.99;50.63
62055;BME280;48653;51.742;-1.256;2023-03-15T07:53:49;101042.33;;;2.31;52.35
62055;BME280;48653;51.742;-1.256;2023-03-15T07:56:14;101041.15;;;2.93;51.83
62055;BME280;48653;51.742;-1.256;2023-03-15T07:58:39;101039.01;;;3.13;52.26
62055;BME280;48653;51.742;-1.256;2023-03-15T08:01:05;101032.45;;;2.58;52.93
62055;BME280;48653;51.742;-1.256;2023-03-15T08:03:30;101036.65;;;2.82;52.30
62055;BME280;48653;51.742;-1.256;2023-03-15T08:05:56;101038.26;;;2.71;52.76
62055;BME280;48653;51.742;-1.256;2023-03-15T08:08:21;101039.89;;;2.77;52.77
62055;BME280;48653;51.742;-1.256;2023-03-15T08:10:47;101042.46;;;2.82;52.75
62055;BME280;48653;51.742;-1.256;2023-03-15T08:13:12;101042.20;;;3.20;52.36
62055;BME280;48653;51.742;-1.256;2023-03-15T08:15:38;101046.73;;;2.73;52.84
62055;BME280;48653;51.742;-1.256;2023-03-15T08:18:04;101043.11;;;3.32;52.50
62055;BME280;48653;51.742;-1.256;2023-03-15T08:20:29;101044.53;;;3.31;53.03
62055;BME280;48653;51.742;-1.256;2023-03-15T08:22:54;101043.97;;;3.44;52.50
62055;BME280;48653;51.742;-1.256;2023-03-15T08:25:21;101042.47;;;3.39;52.58
62055;BME280;48653;51.742;-1.256;2023-03-15T08:27:45;101046.92;;;3.60;51.97
62055;BME280;48653;51.742;-1.256;2023-03-15T08:30:12;101043.84;;;3.36;52.95
62055;BME280;48653;51.742;-1.256;2023-03-15T08:32:36;101040.30;;;2.92;55.01
62055;BME280;48653;51.742;-1.256;2023-03-15T08:35:01;101043.00;;;3.28;53.50
62055;BME280;48653;51.742;-1.256;2023-03-15T08:37:27;101045.17;;;3.58;52.57
62055;BME280;48653;51.742;-1.256;2023-03-15T08:39:52;101043.74;;;4.03;51.75
62055;BME280;48653;51.742;-1.256;2023-03-15T08:42:17;101041.82;;;4.18;51.64
62055;BME280;48653;51.742;-1.256;2023-03-15T08:44:43;101040.58;;;4.36;51.57
62055;BME280;48653;51.742;-1.256;2023-03-15T08:47:08;101036.76;;;4.85;50.62
62055;BME280;48653;51.742;-1.256;2023-03-15T08:49:34;101032.97;;;4.59;50.59
62055;BME280;48653;51.742;-1.256;2023-03-15T08:52:00;101033.28;;;5.03;50.51
62055;BME280;48653;51.742;-1.256;2023-03-15T08:54:25;101028.96;;;5.03;50.59
62055;BME280;48653;51.742;-1.256;2023-03-15T08:56:50;101032.75;;;4.01;51.20
62055;BME280;48653;51.742;-1.256;2023-03-15T08:59:16;101027.11;;;4.51;51.86
62055;BME280;48653;51.742;-1.256;2023-03-15T09:01:41;101024.85;;;4.90;50.40
62055;BME280;48653;51.742;-1.256;2023-03-15T09:04:07;101020.84;;;5.25;49.59
62055;BME280;48653;51.742;-1.256;2023-03-15T09:06:33;101019.60;;;5.02;49.69
62055;BME280;48653;51.742;-1.256;2023-03-15T09:08:58;101021.58;;;5.37;49.18
62055;BME280;48653;51.742;-1.256;2023-03-15T09:11:23;101024.13;;;5.91;48.80
62055;BME280;48653;51.742;-1.256;2023-03-15T09:13:49;101024.67;;;5.53;49.09
62055;BME280;48653;51.742;-1.256;2023-03-15T09:16:14;101024.64;;;5.49;48.67
62055;BME280;48653;51.742;-1.256;2023-03-15T09:18:39;101026.85;;;5.17;49.76
62055;BME280;48653;51.742;-1.256;2023-03-15T09:21:05;101028.14;;;5.66;49.84
62055;BME280;48653;51.742;-1.256;2023-03-15T09:23:30;101025.45;;;5.37;49.12
62055;BME280;48653;51.742;-1.256;2023-03-15T09:25:56;101020.64;;;5.36;49.86
62055;BME280;48653;51.742;-1.256;2023-03-15T09:28:21;101022.82;;;5.97;49.43
62055;BME280;48653;51.742;-1.256;2023-03-15T09:30:46;101024.20;;;6.18;49.26
62055;BME280;48653;51.742;-1.256;2023-03-15T09:33:12;101024.91;;;6.46;48.64
62055;BME280;48653;51.742;-1.256;2023-03-15T09:35:37;101023.54;;;6.37;48.68
62055;BME280;48653;51.742;-1.256;2023-03-15T09:38:02;101029.88;;;6.21;48.64
62055;BME280;48653;51.742;-1.256;2023-03-15T09:40:30;101033.28;;;6.51;48.76
62055;BME280;48653;51.742;-1.256;2023-03-15T09:43:00;101035.07;;;6.92;47.39
62055;BME280;48653;51.742;-1.256;2023-03-15T09:45:25;101037.02;;;6.27;47.14
62055;BME280;48653;51.742;-1.256;2023-03-15T09:47:50;101031.41;;;6.06;47.93
62055;BME280;48653;51.742;-1.256;2023-03-15T09:50:17;101033.87;;;6.27;47.91
62055;BME280;48653;51.742;-1.256;2023-03-15T09:52:38;101037.61;;;6.84;47.46
62055;BME280;48653;51.742;-1.256;2023-03-15T09:55:01;101033.18;;;6.44;47.65
62055;BME280;48653;51.742;-1.256;2023-03-15T09:57:33;101039.22;;;6.19;47.76
62055;BME280;48653;51.742;-1.256;2023-03-15T09:59:51;101043.05;;;6.43;48.19
62055;BME280;48653;51.742;-1.256;2023-03-15T10:02:20;101045.95;;;6.48;47.20
62055;BME280;48653;51.742;-1.256;2023-03-15T10:04:42;101047.94;;;6.95;46.16
62055;BME280;48653;51.742;-1.256;2023-03-15T10:07:08;101050.03;;;7.20;46.11
62055;BME280;48653;51.742;-1.256;2023-03-15T10:09:32;101049.97;;;7.20;45.11
62055;BME280;48653;51.742;-1.256;2023-03-15T10:12:02;101047.09;;;6.95;45.64
62055;BME280;48653;51.742;-1.256;2023-03-15T10:14:26;101045.82;;;7.46;45.07
62055;BME280;48653;51.742;-1.256;2023-03-15T10:16:47;101053.26;;;7.20;45.60
62055;BME280;48653;51.742;-1.256;2023-03-15T10:19:16;101054.78;;;7.65;43.46
62055;BME280;48653;51.742;-1.256;2023-03-15T10:21:41;101053.74;;;7.18;44.95
62055;BME280;48653;51.742;-1.256;2023-03-15T10:24:02;101056.42;;;6.68;45.12
62055;BME280;48653;51.742;-1.256;2023-03-15T10:26:29;101060.49;;;7.19;44.67
62055;BME280;48653;51.742;-1.256;2023-03-15T10:28:52;101063.95;;;7.28;45.41
62055;BME280;48653;51.742;-1.256;2023-03-15T10:31:20;101059.61;;;7.05;44.62
62055;BME280;48653;51.742;-1.256;2023-03-15T10:33:42;101058.04;;;7.28;43.59
62055;BME280;48653;51.742;-1.256;2023-03-15T10:36:13;101057.50;;;6.97;44.29
62055;BME280;48653;51.742;-1.256;2023-03-15T10:38:31;101058.66;;;7.10;43.89
62055;BME280;48653;51.742;-1.256;2023-03-15T10:40:58;101056.93;;;7.71;42.39
62055;BME280;48653;51.742;-1.256;2023-03-15T10:43:24;101053.92;;;7.65;42.37
62055;BME280;48653;51.742;-1.256;2023-03-15T10:45:57;101051.19;;;7.68;40.65
62055;BME280;48653;51.742;-1.256;2023-03-15T10:48:12;101046.45;;;6.98;42.30
62055;BME280;48653;51.742;-1.256;2023-03-15T10:50:38;101044.16;;;7.23;41.53
62055;BME280;48653;51.742;-1.256;2023-03-15T10:53:08;101043.56;;;7.07;41.25
62055;BME280;48653;51.742;-1.256;2023-03-15T10:55:30;101042.21;;;7.66;41.39
62055;BME280;48653;51.742;-1.256;2023-03-15T10:57:55;101036.42;;;7.94;41.39
62055;BME280;48653;51.742;-1.256;2023-03-15T11:00:25;101028.24;;;7.62;40.05
62055;BME280;48653;51.742;-1.256;2023-03-15T11:02:48;101029.19;;;7.93;40.54
62055;BME280;48653;51.742;-1.256;2023-03-15T11:05:16;101030.17;;;6.89;40.12
62055;BME280;48653;51.742;-1.256;2023-03-15T11:07:34;101022.29;;;7.27;40.12
62055;BME280;48653;51.742;-1.256;2023-03-15T11:10:01;101015.94;;;8.22;40.04
62055;BME280;48653;51.742;-1.256;2023-03-15T11:12:25;101015.62;;;7.83;40.25
62055;BME280;48653;51.742;-1.256;2023-03-15T11:14:51;101012.32;;;8.40;40.52
62055;BME280;48653;51.742;-1.256;2023-03-15T11:17:17;101014.89;;;8.07;39.84
62055;BME280;48653;51.742;-1.256;2023-03-15T11:19:41;101013.77;;;7.89;40.61
62055;BME280;48653;51.742;-1.256;2023-03-15T11:22:07;101013.60;;;7.73;40.95
62055;BME280;48653;51.742;-1.256;2023-03-15T11:24:32;101011.59;;;8.53;39.75
62055;BME280;48653;51.742;-1.256;2023-03-15T11:26:57;101011.86;;;8.28;40.26
62055;BME280;48653;51.742;-1.256;2023-03-15T11:29:23;101008.32;;;7.60;40.92
62055;BME280;48653;51.742;-1.256;2023-03-15T11:31:46;101003.29;;;7.42;40.97
62055;BME280;48653;51.742;-1.256;2023-03-15T11:34:14;100999.61;;;7.89;40.54
62055;BME280;48653;51.742;-1.256;2023-03-15T11:36:40;100995.36;;;8.34;40.11
62055;BME280;48653;51.742;-1.256;2023-03-15T11:39:02;100997.95;;;9.24;38.93
62055;BME280;48653;51.742;-1.256;2023-03-15T11:41:31;100997.85;;;8.89;39.16
62055;BME280;48653;51.742;-1.256;2023-03-15T11:44:00;101001.05;;;9.15;37.77
62055;BME280;48653;51.742;-1.256;2023-03-15T11:46:24;101004.75;;;9.42;37.91
62055;BME280;48653;51.742;-1.256;2023-03-15T11:48:46;101002.20;;;8.82;38.17
62055;BME280;48653;51.742;-1.256;2023-03-15T11:51:09;101002.28;;;8.23;38.69
62055;BME280;48653;51.742;-1.256;2023-03-15T11:53:36;100996.47;;;8.62;39.22
62055;BME280;48653;51.742;-1.256;2023-03-15T11:58:28;100988.50;;;7.92;40.18
62055;BME280;48653;51.742;-1.256;2023-03-15T12:00:52;100983.19;;;8.83;38.84
62055;BME280;48653;51.742;-1.256;2023-03-15T12:03:28;100982.02;;;9.42;38.41
62055;BME280;48653;51.742;-1.256;2023-03-15T12:05:44;100977.49;;;9.07;38.10
62055;BME280;48653;51.742;-1.256;2023-03-15T12:08:15;100975.18;;;8.55;39.81
62055;BME280;48653;51.742;-1.256;2023-03-15T12:10:31;100976.41;;;8.40;37.83
62055;BME280;48653;51.742;-1.256;2023-03-15T12:12:57;100975.14;;;8.32;38.74
62055;BME280;48653;51.742;-1.256;2023-03-15T12:17:45;100968.19;;;9.36;37.08
62055;BME280;48653;51.742;-1.256;2023-03-15T12:20:18;100967.19;;;9.71;38.07
62055;BME280;48653;51.742;-1.256;2023-03-15T12:22:35;100966.27;;;9.34;36.97
62055;BME280;48653;51.742;-1.256;2023-03-15T12:25:07;100963.05;;;8.29;37.29
62055;BME280;48653;51.742;-1.256;2023-03-15T12:27:27;100966.15;;;8.39;37.24
62055;BME280;48653;51.742;-1.256;2023-03-15T12:29:57;100962.11;;;8.29;37.21
62055;BME280;48653;51.742;-1.256;2023-03-15T12:32:16;100963.07;;;9.13;37.63
62055;BME280;48653;51.742;-1.256;2023-03-15T12:34:45;100955.12;;;8.63;37.78
62055;BME280;48653;51.742;-1.256;2023-03-15T12:37:07;100952.95;;;9.40;37.41
62055;BME280;48653;51.742;-1.256;2023-03-15T12:39:37;100951.44;;;9.19;37.77
62055;BME280;48653;51.742;-1.256;2023-03-15T12:41:55;100956.68;;;8.58;37.80
62055;BME280;48653;51.742;-1.256;2023-03-15T12:44:25;100946.09;;;8.88;38.13
62055;BME280;48653;51.742;-1.256;2023-03-15T12:46:55;100946.30;;;8.49;39.04
62055;BME280;48653;51.742;-1.256;2023-03-15T12:49:11;100957.89;;;8.34;38.92